Time;durP1;ratioP1;P1;durP2;ratioP2;P2;SDS_P1;SDS_P2;PMS_P1;PMS_P2;Temp;Humidity;BMP_temperature;BMP_pressure;BME280_temperature;BME280_humidity;BME280_pressure;Samples;Min_cycle;Max_cycle;Signal;HPM_P1;HPM_P2
2021/03/24 00:01:16;;;;;;;22.77;9.57;;;;;;;0.10;100.00;97098.97;5037125;28;20771;-73
2021/03/24 00:03:43;;;;;;;21.10;8.73;;;;;;;0.12;100.00;97109.25;5037321;28;20201;-73
2021/03/24 00:06:10;;;;;;;21.80;9.33;;;;;;;0.19;100.00;97102.75;5036455;28;20717;-74
2021/03/24 00:08:36;;;;;;;25.57;10.67;;;;;;;0.17;100.00;97102.84;5037117;28;20266;-74
2021/03/24 00:11:03;;;;;;;26.10;9.93;;;;;;;0.24;100.00;97098.97;5037521;28;20991;-73
2021/03/24 00:13:29;;;;;;;22.17;9.33;;;;;;;0.14;100.00;97097.88;5037349;28;20197;-74
2021/03/24 00:15:55;;;;;;;22.83;9.37;;;;;;;0.14;100.00;97100.47;5036092;28;20230;-73
2021/03/24 00:18:21;;;;;;;18.53;8.43;;;;;;;0.17;100.00;97108.03;5036943;28;20252;-74
2021/03/24 00:20:48;;;;;;;22.37;9.50;;;;;;;0.09;100.00;97096.50;5037338;28;20209;-73
2021/03/24 00:23:14;;;;;;;24.80;10.60;;;;;;;0.04;100.00;97101.13;5037069;28;20208;-73
2021/03/24 00:25:41;;;;;;;28.17;12.63;;;;;;;0.11;100.00;97094.63;5036049;28;20266;-74
2021/03/24 00:28:08;;;;;;;30.93;12.83;;;;;;;0.21;100.00;97091.38;5037163;28;20213;-74
2021/03/24 00:30:37;;;;;;;27.37;12.50;;;;;;;0.12;100.00;97093.69;5037461;28;20625;-73
2021/03/24 00:33:03;;;;;;;26.30;11.40;;;;;;;0.04;100.00;97088.97;5036527;28;20205;-74
2021/03/24 00:35:30;;;;;;;25.53;11.23;;;;;;;0.01;100.00;97090.91;5036187;28;20225;-74
2021/03/24 00:37:57;;;;;;;27.57;12.60;;;;;;;-0.02;100.00;97091.13;5037380;28;20205;-73
2021/03/24 00:40:27;;;;;;;26.90;11.70;;;;;;;-0.04;100.00;97092.94;5036209;28;20198;-74
2021/03/24 00:42:53;;;;;;;26.13;11.77;;;;;;;-0.06;100.00;97086.19;5036899;28;20212;-74
2021/03/24 00:45:19;;;;;;;27.33;11.03;;;;;;;-0.02;100.00;97088.53;5035845;28;20312;-74
2021/03/24 00:47:46;;;;;;;29.37;12.43;;;;;;;-0.03;100.00;97083.44;5036459;28;20646;-73
2021/03/24 00:50:15;;;;;;;31.17;12.20;;;;;;;-0.02;100.00;97081.56;5036346;28;20224;-74
2021/03/24 00:52:41;;;;;;;32.30;12.57;;;;;;;-0.09;100.00;97083.81;5037243;28;20197;-73
2021/03/24 00:55:08;;;;;;;34.90;13.67;;;;;;;-0.02;100.00;97085.13;5036072;28;20230;-73
2021/03/24 00:57:35;;;;;;;59.67;22.13;;;;;;;0.06;100.00;97079.38;5036436;28;20579;-74
2021/03/24 01:00:01;;;;;;;59.87;22.83;;;;;;;0.09;100.00;97079.19;5036377;28;20205;-74
2021/03/24 01:02:27;;;;;;;36.80;15.20;;;;;;;0.12;100.00;97078.97;5037004;28;20209;-73
2021/03/24 01:04:53;;;;;;;42.47;16.07;;;;;;;-0.02;100.00;97072.16;5036040;28;20216;-74
2021/03/24 01:07:20;;;;;;;35.33;13.20;;;;;;;-0.11;100.00;97075.31;5035802;28;20204;-74
2021/03/24 01:09:46;;;;;;;33.30;14.20;;;;;;;-0.24;100.00;97076.94;5036842;28;20224;-74
2021/03/24 01:12:12;;;;;;;34.87;13.77;;;;;;;-0.38;100.00;97071.75;5035901;28;20213;-74
2021/03/24 01:14:39;;;;;;;32.53;13.03;;;;;;;-0.28;100.00;97078.06;5036596;28;20205;-73
2021/03/24 01:17:06;;;;;;;29.80;12.43;;;;;;;-0.20;100.00;97078.47;5036111;28;20206;-73
2021/03/24 01:19:32;;;;;;;27.10;12.37;;;;;;;-0.22;100.00;97073.34;5036048;28;20201;-73
2021/03/24 01:21:58;;;;;;;27.20;12.47;;;;;;;-0.25;100.00;97072.72;5036281;28;20317;-74
2021/03/24 01:24:24;;;;;;;28.50;11.93;;;;;;;-0.33;100.00;97070.59;5036506;28;20199;-74
2021/03/24 01:26:50;;;;;;;27.97;12.77;;;;;;;-0.40;100.00;97063.28;5034990;28;20236;-74
2021/03/24 01:29:16;;;;;;;31.60;12.83;;;;;;;-0.36;100.00;97069.94;5035887;28;20202;-74
2021/03/24 01:31:43;;;;;;;29.17;12.07;;;;;;;-0.30;100.00;97064.38;5036265;28;20209;-74
2021/03/24 01:34:09;;;;;;;28.93;12.20;;;;;;;-0.25;100.00;97062.34;5036567;28;20209;-73
2021/03/24 01:36:35;;;;;;;23.97;11.53;;;;;;;-0.19;100.00;97069.75;5035219;28;20225;-74
2021/03/24 01:39:01;;;;;;;28.80;11.60;;;;;;;-0.20;100.00;97065.50;5036178;28;20208;-73
2021/03/24 01:41:28;;;;;;;27.83;11.50;;;;;;;-0.27;100.00;97069.38;5036016;28;20671;-73
2021/03/24 01:43:55;;;;;;;25.67;10.67;;;;;;;-0.37;100.00;97069.09;5035866;28;20203;-73
2021/03/24 01:46:38;;;;;;;25.73;10.50;;;;;;;-0.39;100.00;97070.13;5035419;28;20220;-73
2021/03/24 01:49:12;;;;;;;26.00;10.80;;;;;;;-0.48;100.00;97062.91;5036023;28;20266;-73
2021/03/24 01:51:40;;;;;;;26.10;10.60;;;;;;;-0.44;100.00;97057.44;5036529;28;20256;-74
2021/03/24 01:54:10;;;;;;;25.23;10.60;;;;;;;-0.46;100.00;97059.28;5036501;28;20204;-73
2021/03/24 01:56:39;;;;;;;28.87;11.47;;;;;;;-0.55;100.00;97049.50;5039540;28;20229;-73
2021/03/24 01:59:05;;;;;;;30.10;11.93;;;;;;;-0.58;100.00;97054.00;5038921;28;20212;-74
2021/03/24 02:01:31;;;;;;;26.80;10.60;;;;;;;-0.41;100.00;97061.59;5038979;28;20208;-73
2021/03/24 02:03:57;;;;;;;25.40;11.23;;;;;;;-0.60;100.00;97061.00;5040232;28;20299;-74
2021/03/24 02:06:30;;;;;;;26.17;11.07;;;;;;;-0.58;100.00;97064.34;5038928;28;20220;-73
2021/03/24 02:09:05;;;;;;;29.53;11.07;;;;;;;-0.74;100.00;97063.56;5039593;28;20218;-74
2021/03/24 02:11:37;;;;;;;30.77;11.77;;;;;;;-0.82;100.00;97055.44;5039165;28;20196;-73
2021/03/24 02:14:10;;;;;;;27.27;11.50;;;;;;;-0.85;100.00;97054.78;5039652;28;20216;-74
2021/03/24 02:16:41;;;;;;;25.17;11.10;;;;;;;-0.78;100.00;97049.16;5038668;28;20278;-73
2021/03/24 02:19:17;;;;;;;26.83;11.93;;;;;;;-0.82;100.00;97054.59;5039166;28;20204;-73
2021/03/24 02:21:46;;;;;;;29.80;12.23;;;;;;;-1.03;100.00;97053.25;5039816;28;20204;-74
2021/03/24 02:24:30;;;;;;;28.93;10.90;;;;;;;-0.90;100.00;97049.88;5039016;28;20201;-73
2021/03/24 02:27:03;;;;;;;29.37;11.77;;;;;;;-0.82;100.00;97052.03;5038737;28;20716;-73
2021/03/24 02:29:31;;;;;;;24.50;10.70;;;;;;;-0.80;100.00;97056.19;5039118;28;20286;-74
2021/03/24 02:31:59;;;;;;;28.30;10.43;;;;;;;-0.82;100.00;97054.59;5039400;28;20212;-73
2021/03/24 02:34:29;;;;;;;23.57;10.07;;;;;;;-0.90;100.00;97049.88;5039160;28;20233;-73
2021/03/24 02:36:56;;;;;;;27.20;11.07;;;;;;;-0.91;100.00;97055.97;5038474;28;20700;-74
2021/03/24 02:39:25;;;;;;;23.80;10.93;;;;;;;-0.99;100.00;97050.41;5038531;28;20221;-73
2021/03/24 02:41:53;;;;;;;29.90;11.80;;;;;;;-0.91;100.00;97053.38;5038785;28;20231;-73
2021/03/24 02:44:21;;;;;;;34.23;13.37;;;;;;;-0.91;100.00;97058.56;5038918;28;20207;-73
2021/03/24 02:46:47;;;;;;;32.50;11.90;;;;;;;-0.98;100.00;97052.09;5038057;28;20322;-73
2021/03/24 02:49:15;;;;;;;30.93;12.43;;;;;;;-0.96;100.00;97034.69;5038683;28;20216;-73
2021/03/24 02:51:41;;;;;;;30.30;12.10;;;;;;;-0.83;100.00;97040.00;5038771;28;20901;-73
2021/03/24 02:54:10;;;;;;;29.47;11.97;;;;;;;-0.85;100.00;97041.84;5038919;28;20213;-73
2021/03/24 02:56:37;;;;;;;27.27;11.13;;;;;;;-0.89;100.00;97043.78;5037893;28;20233;-73
2021/03/24 02:59:03;;;;;;;30.90;11.47;;;;;;;-0.86;100.00;97043.59;5038583;28;20197;-73
2021/03/24 03:01:37;;;;;;;31.20;11.70;;;;;;;-0.84;100.00;97046.09;5038908;28;20233;-73
2021/03/24 03:04:08;;;;;;;26.87;10.87;;;;;;;-0.87;100.00;97047.09;5038439;28;20209;-73
2021/03/24 03:06:34;;;;;;;28.30;12.03;;;;;;;-0.93;100.00;97047.47;5038073;28;20275;-73
2021/03/24 03:09:05;;;;;;;32.30;12.23;;;;;;;-1.12;100.00;97046.88;5038255;28;20244;-73
2021/03/24 03:11:40;;;;;;;28.43;12.07;;;;;;;-1.02;100.00;97042.84;5037979;28;20286;-73
2021/03/24 03:14:08;;;;;;;27.67;11.77;;;;;;;-0.98;100.00;97038.31;5038550;28;20201;-73
2021/03/24 03:16:43;;;;;;;25.70;11.30;;;;;;;-1.01;100.00;97036.72;5038535;28;20218;-74
2021/03/24 03:19:17;;;;;;;32.67;11.77;;;;;;;-1.06;100.00;97036.19;5037514;28;20215;-73
2021/03/24 03:21:46;;;;;;;27.13;11.90;;;;;;;-1.17;100.00;97038.53;5038510;28;20216;-73
2021/03/24 03:24:15;;;;;;;30.77;12.40;;;;;;;-1.11;100.00;97033.03;5038775;28;20580;-74
2021/03/24 03:26:43;;;;;;;32.83;12.53;;;;;;;-1.09;100.00;97036.34;5037177;28;20973;-73
2021/03/24 03:29:16;;;;;;;29.17;12.60;;;;;;;-1.03;100.00;97036.00;5037579;28;20208;-73
2021/03/24 03:31:46;;;;;;;28.00;11.50;;;;;;;-1.03;100.00;97040.31;5036367;28;20221;-74
2021/03/24 03:34:15;;;;;;;28.30;11.07;;;;;;;-1.03;100.00;97041.16;5037999;28;20206;-73
2021/03/24 03:36:46;;;;;;;30.47;11.70;;;;;;;-1.00;100.00;97046.16;5037104;28;20228;-73
2021/03/24 03:39:15;;;;;;;31.10;12.23;;;;;;;-1.01;100.00;97043.66;5037887;28;20201;-74
2021/03/24 03:41:41;;;;;;;30.00;11.70;;;;;;;-1.06;100.00;97045.66;5037640;28;20197;-74
2021/03/24 03:44:08;;;;;;;32.10;12.67;;;;;;;-1.13;100.00;97037.44;5037613;28;20271;-73
2021/03/24 03:46:41;;;;;;;31.67;12.43;;;;;;;-1.14;100.00;97033.19;5037204;28;20221;-72
2021/03/24 03:49:08;;;;;;;25.00;11.00;;;;;;;-1.08;100.00;97029.44;5037570;28;20227;-73
2021/03/24 03:51:42;;;;;;;24.27;11.30;;;;;;;-1.15;100.00;97036.69;5037562;28;20242;-74
2021/03/24 03:54:13;;;;;;;24.03;10.70;;;;;;;-1.09;100.00;97038.91;5037397;28;20213;-73
2021/03/24 03:56:46;;;;;;;29.27;11.57;;;;;;;-1.08;100.00;97042.34;5036837;28;20997;-74
2021/03/24 03:59:15;;;;;;;28.97;11.87;;;;;;;-1.08;100.00;97038.00;5037109;28;20237;-74
2021/03/24 04:01:45;;;;;;;28.47;11.63;;;;;;;-1.00;100.00;97037.56;5037422;28;20201;-74
2021/03/24 04:04:25;;;;;;;33.23;12.10;;;;;;;-1.14;100.00;97032.34;5037539;28;20300;-74
2021/03/24 04:06:57;;;;;;;38.43;13.50;;;;;;;-1.21;100.00;97034.47;5036482;28;20228;-73
2021/03/24 04:09:24;;;;;;;30.00;13.10;;;;;;;-1.32;100.00;97028.22;5036957;28;20209;-74
2021/03/24 04:11:52;;;;;;;37.23;13.57;;;;;;;-1.32;100.00;97032.56;5037484;28;20197;-73
2021/03/24 04:14:22;;;;;;;35.37;13.33;;;;;;;-1.22;100.00;97027.63;5036932;28;20213;-73
2021/03/24 04:16:50;;;;;;;28.97;11.80;;;;;;;-1.25;100.00;97032.13;5035566;28;20240;-73
2021/03/24 04:19:19;;;;;;;28.37;12.70;;;;;;;-1.22;100.00;97037.97;5037683;28;20786;-73
2021/03/24 04:21:50;;;;;;;32.90;13.27;;;;;;;-1.22;100.00;97035.38;5037541;28;20630;-74
2021/03/24 04:24:19;;;;;;;27.73;12.43;;;;;;;-1.19;100.00;97037.78;5036618;28;20259;-73
2021/03/24 04:26:48;;;;;;;32.20;13.23;;;;;;;-1.20;100.00;97043.88;5036569;28;20233;-73
2021/03/24 04:29:18;;;;;;;32.53;13.33;;;;;;;-1.21;100.00;97037.03;5037513;28;20205;-73
2021/03/24 04:31:49;;;;;;;28.93;12.27;;;;;;;-1.18;100.00;97039.44;5036616;28;20228;-73
2021/03/24 04:34:17;;;;;;;32.20;11.73;;;;;;;-1.23;100.00;97038.88;5036488;28;20205;-73
2021/03/24 04:36:48;;;;;;;48.77;16.50;;;;;;;-1.33;100.00;97051.59;5036210;28;20338;-73
2021/03/24 04:39:21;;;;;;;39.43;14.43;;;;;;;-1.30;100.00;97047.06;5036610;28;20205;-73
2021/03/24 04:41:49;;;;;;;42.27;15.00;;;;;;;-1.26;100.00;97047.72;5036659;28;20572;-73
2021/03/24 04:44:20;;;;;;;37.90;14.10;;;;;;;-1.23;100.00;97055.28;5036331;28;20209;-74
2021/03/24 04:46:49;;;;;;;32.13;11.77;;;;;;;-1.26;100.00;97053.75;5035760;28;20228;-73
2021/03/24 04:49:20;;;;;;;32.57;12.73;;;;;;;-1.38;100.00;97064.75;5036312;28;20661;-73
2021/03/24 04:51:47;;;;;;;34.27;12.60;;;;;;;-1.40;100.00;97070.94;5036626;28;20244;-73
2021/03/24 04:54:17;;;;;;;30.30;11.47;;;;;;;-1.43;100.00;97076.28;5036226;28;20283;-74
2021/03/24 04:56:47;;;;;;;30.13;12.07;;;;;;;-1.38;100.00;97079.44;5035871;28;20225;-74
2021/03/24 04:59:17;;;;;;;30.07;12.50;;;;;;;-1.31;100.00;97079.03;5036651;28;20205;-75
2021/03/24 05:01:48;;;;;;;27.07;11.77;;;;;;;-1.37;100.00;97086.28;5035971;28;20205;-73
2021/03/24 05:04:22;;;;;;;29.73;11.60;;;;;;;-1.34;100.00;97083.53;5036077;28;20208;-72
2021/03/24 05:06:52;;;;;;;28.93;11.93;;;;;;;-1.37;100.00;97079.34;5035599;28;20221;-73
2021/03/24 05:09:19;;;;;;;31.37;12.47;;;;;;;-1.34;100.00;97081.75;5035998;28;20247;-75
2021/03/24 05:11:49;;;;;;;31.13;13.07;;;;;;;-1.32;100.00;97084.25;5036164;28;20221;-73
2021/03/24 05:14:24;;;;;;;29.43;12.73;;;;;;;-1.30;100.00;97092.75;5036183;28;20684;-72
2021/03/24 05:17:10;;;;;;;32.50;12.40;;;;;;;-1.42;100.00;97083.13;5035555;28;20251;-73
2021/03/24 05:19:38;;;;;;;33.47;13.30;;;;;;;-1.70;100.00;97090.72;5035826;28;20205;-73
2021/03/24 05:22:12;;;;;;;33.70;12.40;;;;;;;-1.63;100.00;97099.78;5036703;28;20258;-73
2021/03/24 05:24:40;;;;;;;33.20;12.70;;;;;;;-1.52;100.00;97097.47;5036090;28;20204;-73
2021/03/24 05:27:15;;;;;;;31.00;12.70;;;;;;;-1.47;100.00;97103.22;5035550;28;20267;-74
2021/03/24 05:29:45;;;;;;;31.37;11.97;;;;;;;-1.38;100.00;97103.53;5039239;28;20205;-74
2021/03/24 05:32:18;;;;;;;32.10;12.93;;;;;;;-1.38;100.00;97090.59;5040742;28;20965;-73
2021/03/24 05:34:49;;;;;;;37.13;12.97;;;;;;;-1.58;100.00;97105.53;5039205;28;20201;-74
2021/03/24 05:37:15;;;;;;;30.13;12.20;;;;;;;-1.84;100.00;97106.13;5039819;28;20262;-74
2021/03/24 05:39:42;;;;;;;27.67;12.40;;;;;;;-1.83;100.00;97107.78;5040579;28;20205;-73
2021/03/24 05:42:23;;;;;;;32.17;12.63;;;;;;;-1.60;100.00;97105.63;5040354;28;20216;-74
2021/03/24 05:45:06;;;;;;;27.67;12.30;;;;;;;-1.44;100.00;97101.31;5039827;28;21304;-73
2021/03/24 05:47:56;;;;;;;33.57;13.20;;;;;;;-1.43;100.00;97112.47;5039835;28;20189;-74
2021/03/24 05:50:47;;;;;;;36.63;13.20;;;;;;;-1.45;100.00;97109.97;5040117;28;20233;-74
2021/03/24 05:53:30;;;;;;;30.47;14.03;;;;;;;-1.41;100.00;97106.28;5040543;28;20209;-74
2021/03/24 05:56:05;;;;;;;29.53;12.80;;;;;;;-1.23;100.00;97100.09;5038648;28;20255;-74
2021/03/24 05:58:41;;;;;;;35.20;13.90;;;;;;;-1.11;100.00;97100.25;5040052;28;20205;-75
2021/03/24 06:01:10;;;;;;;33.50;14.00;;;;;;;-1.07;100.00;97104.34;5039528;28;20275;-75
2021/03/24 06:03:53;;;;;;;34.33;13.87;;;;;;;-1.00;100.00;97105.63;5039990;28;20209;-75
2021/03/24 06:07:03;;;;;;;38.20;14.67;;;;;;;-1.03;100.00;97102.38;5039023;28;20220;-75
2021/03/24 06:09:47;;;;;;;34.73;14.43;;;;;;;-0.93;100.00;97104.38;5039341;28;20578;-74
2021/03/24 06:12:28;;;;;;;48.92;21.02;;;;;;;-0.72;100.00;97105.72;5039782;28;20442;-76
2021/03/24 06:15:28;;;;;;;38.03;16.57;;;;;;;-0.63;100.00;97098.25;5039791;28;20209;-75
2021/03/24 06:18:23;;;;;;;38.23;14.83;;;;;;;-0.50;100.00;97088.88;5035211;28;20209;-76
2021/03/24 06:20:55;;;;;;;36.10;14.07;;;;;;;-0.48;100.00;97097.38;5040435;28;20206;-76
2021/03/24 06:23:43;;;;;;;30.70;14.20;;;;;;;-0.34;100.00;97096.56;5039808;28;20204;-75
2021/03/24 06:26:31;;;;;;;36.67;15.67;;;;;;;-0.30;100.00;97101.47;5039319;28;20238;-74
2021/03/24 06:29:05;;;;;;;43.30;17.60;;;;;;;-0.18;100.00;97094.72;5040094;28;20205;-76
2021/03/24 06:32:04;;;;;;;38.27;16.60;;;;;;;-0.08;100.00;97093.25;5040046;28;20222;-76
2021/03/24 06:35:07;;;;;;;41.93;17.43;;;;;;;0.04;100.00;97088.97;5040156;28;20197;-74
2021/03/24 06:37:51;;;;;;;42.33;17.20;;;;;;;0.08;100.00;97089.63;5039894;28;20197;-75
2021/03/24 06:40:42;;;;;;;39.13;16.73;;;;;;;0.17;100.00;97096.84;5039712;28;20263;-76
2021/03/24 06:43:42;;;;;;;38.90;15.93;;;;;;;0.29;100.00;97080.53;5040710;28;20639;-76
2021/03/24 06:46:18;;;;;;;48.63;17.13;;;;;;;0.31;100.00;97084.69;5039440;28;20724;-76
2021/03/24 06:49:16;;;;;;;37.70;16.03;;;;;;;0.36;100.00;97076.66;5040774;28;20209;-76
2021/03/24 06:52:22;;;;;;;46.80;17.07;;;;;;;0.48;100.00;97078.47;4993547;28;20235;-76
2021/03/24 06:55:16;;;;;;;40.63;17.47;;;;;;;0.60;100.00;97086.31;5041333;28;20622;-76
2021/03/24 06:58:07;;;;;;;46.80;17.83;;;;;;;0.73;100.00;97082.84;5041501;28;20214;-75
2021/03/24 07:00:51;;;;;;;42.77;18.67;;;;;;;0.81;100.00;97080.56;5041901;28;20291;-76
2021/03/24 07:03:45;;;;;;;52.87;18.73;;;;;;;0.88;100.00;97084.47;5041566;28;20265;-76
2021/03/24 07:06:30;;;;;;;41.10;17.03;;;;;;;0.97;100.00;97085.59;5041427;28;20717;-76
2021/03/24 07:09:07;;;;;;;43.80;18.37;;;;;;;1.06;100.00;97083.28;5042562;28;20215;-76
2021/03/24 07:11:46;;;;;;;43.57;18.17;;;;;;;1.11;100.00;97094.19;5043768;28;20252;-76
2021/03/24 07:14:33;;;;;;;46.47;19.27;;;;;;;1.28;100.00;97091.31;5043135;28;20213;-76
2021/03/24 07:17:16;;;;;;;53.70;19.47;;;;;;;1.34;100.00;97104.72;5042725;28;20769;-76
2021/03/24 07:20:07;;;;;;;41.97;18.47;;;;;;;1.35;100.00;97108.13;5042938;28;20667;-76
2021/03/24 07:22:45;;;;;;;44.37;17.53;;;;;;;1.43;100.00;97114.50;5009477;28;20205;-76
2021/03/24 07:25:33;;;;;;;47.10;17.67;;;;;;;1.49;100.00;97116.72;5042612;28;20703;-76
2021/03/24 07:28:21;;;;;;;48.23;18.10;;;;;;;1.54;100.00;97119.84;5042824;28;20210;-77
2021/03/24 07:31:05;;;;;;;47.17;17.00;;;;;;;1.67;100.00;97117.22;5042936;28;20229;-76
2021/03/24 07:33:41;;;;;;;50.30;17.37;;;;;;;1.61;100.00;97122.84;5041662;28;20204;-75
2021/03/24 07:36:25;;;;;;;44.13;16.30;;;;;;;1.47;100.00;97122.94;5041599;28;20235;-75
2021/03/24 07:39:06;;;;;;;43.93;17.23;;;;;;;1.69;100.00;97123.16;5041771;28;20203;-75
2021/03/24 07:42:13;;;;;;;42.20;17.50;;;;;;;1.83;100.00;97123.91;5042936;28;20211;-75
2021/03/24 07:44:59;;;;;;;45.37;16.97;;;;;;;1.94;100.00;97119.66;5042818;28;20212;-75
2021/03/24 07:47:53;;;;;;;40.83;16.13;;;;;;;2.05;100.00;97121.50;5040165;28;20219;-74
2021/03/24 07:50:32;;;;;;;48.80;18.40;;;;;;;2.33;100.00;97129.09;5043125;28;20734;-75
2021/03/24 07:53:24;;;;;;;49.80;18.00;;;;;;;2.47;100.00;97122.84;5041774;28;20197;-76
2021/03/24 07:55:58;;;;;;;44.10;17.83;;;;;;;2.51;100.00;97126.06;5033248;28;20594;-76
2021/03/24 07:58:35;;;;;;;45.27;17.47;;;;;;;2.68;100.00;97113.50;5044225;28;20200;-74
2021/03/24 08:01:11;;;;;;;40.70;17.73;;;;;;;2.68;100.00;97121.31;5043394;28;20683;-75
2021/03/24 08:03:51;;;;;;;48.50;18.20;;;;;;;2.82;100.00;97122.97;5044406;28;20270;-74
2021/03/24 08:06:27;;;;;;;46.63;18.07;;;;;;;2.82;100.00;97120.34;5044897;28;21182;-75
2021/03/24 08:09:05;;;;;;;45.57;17.33;;;;;;;2.96;100.00;97113.22;5043341;28;20212;-74
2021/03/24 08:11:36;;;;;;;44.63;16.53;;;;;;;3.23;100.00;97112.06;5043602;28;20220;-74
2021/03/24 08:14:16;;;;;;;42.67;17.03;;;;;;;3.32;100.00;97115.75;5043834;28;20205;-76
2021/03/24 08:17:00;;;;;;;41.67;16.80;;;;;;;3.45;100.00;97116.50;5041806;28;20228;-76
2021/03/24 08:19:57;;;;;;;37.83;17.00;;;;;;;3.59;100.00;97111.13;5043098;28;20283;-75
2021/03/24 08:22:53;;;;;;;41.53;17.43;;;;;;;3.79;100.00;97114.75;5043386;28;20200;-74
2021/03/24 08:25:32;;;;;;;38.73;17.13;;;;;;;3.89;100.00;97114.88;5027948;28;20232;-74
2021/03/24 08:28:05;;;;;;;42.57;17.60;;;;;;;4.02;100.00;97123.44;5042692;28;20201;-75
2021/03/24 08:30:59;;;;;;;43.03;17.50;;;;;;;3.98;100.00;97117.63;5042717;28;20221;-76
2021/03/24 08:33:47;;;;;;;42.83;17.57;;;;;;;4.07;100.00;97121.31;5043009;28;20210;-76
2021/03/24 08:36:35;;;;;;;38.17;16.70;;;;;;;4.22;100.00;97121.78;5042966;28;20232;-76
2021/03/24 08:39:32;;;;;;;41.50;17.00;;;;;;;4.36;99.53;97125.97;5042543;28;20209;-75
2021/03/24 08:42:30;;;;;;;42.63;16.70;;;;;;;4.28;98.31;97126.53;5041230;28;20205;-75
2021/03/24 08:45:01;;;;;;;45.57;18.07;;;;;;;4.41;100.00;97129.06;5039613;28;20216;-74
2021/03/24 08:47:32;;;;;;;37.70;17.13;;;;;;;4.48;100.00;97122.41;5037534;28;20201;-75
2021/03/24 08:50:00;;;;;;;39.43;16.87;;;;;;;4.35;99.08;97121.69;5040798;28;20213;-74
2021/03/24 08:52:39;;;;;;;38.47;16.07;;;;;;;4.38;98.98;97124.91;5041447;28;20205;-76
2021/03/24 08:55:17;;;;;;;43.33;16.23;;;;;;;4.49;100.00;97121.44;5040759;28;20225;-75
2021/03/24 08:57:56;;;;;;;37.97;16.73;;;;;;;4.64;98.93;97125.50;5040679;28;20620;-76
2021/03/24 09:00:44;;;;;;;44.63;16.50;;;;;;;4.53;98.12;97121.13;5040401;28;20224;-76
2021/03/24 09:03:43;;;;;;;39.87;17.07;;;;;;;4.65;98.68;97119.31;5040020;28;20204;-74
2021/03/24 09:06:17;;;;;;;36.47;16.37;;;;;;;4.74;97.38;97119.44;5038976;28;20232;-76
2021/03/24 09:08:51;;;;;;;37.67;16.13;;;;;;;4.77;97.33;97115.75;5040812;28;20209;-75
2021/03/24 09:11:34;;;;;;;40.17;16.53;;;;;;;5.07;97.98;97111.53;5041611;28;21000;-75
2021/03/24 09:14:09;;;;;;;44.40;16.80;;;;;;;5.18;95.35;97117.56;5040488;28;20210;-76
2021/03/24 09:17:13;;;;;;;36.57;16.13;;;;;;;5.37;96.68;97104.66;5039776;28;20227;-76
2021/03/24 09:20:24;;;;;;;39.00;16.43;;;;;;;5.57;98.14;97109.09;5041571;28;20204;-76
2021/03/24 09:23:03;;;;;;;38.37;15.93;;;;;;;5.81;93.88;97104.50;5041107;28;20205;-76
2021/03/24 09:25:46;;;;;;;33.10;13.30;;;;;;;5.83;91.97;97100.81;5042224;28;20235;-74
2021/03/24 09:28:31;;;;;;;35.60;14.57;;;;;;;5.96;90.80;97105.81;5041843;28;21071;-75
2021/03/24 09:31:25;;;;;;;37.30;15.73;;;;;;;6.14;90.62;97098.09;5042116;28;20405;-75
2021/03/24 09:33:54;;;;;;;37.90;14.80;;;;;;;6.38;87.77;97097.81;5041423;28;20200;-74
2021/03/24 09:36:58;;;;;;;33.03;14.17;;;;;;;6.56;87.06;97094.44;5040717;28;20243;-73
2021/03/24 09:39:33;;;;;;;34.53;15.43;;;;;;;6.91;86.99;97086.97;5042013;28;20208;-76
2021/03/24 09:42:05;;;;;;;33.60;14.73;;;;;;;6.91;83.13;97084.34;5041049;28;20288;-74
2021/03/24 09:44:45;;;;;;;33.37;14.30;;;;;;;6.85;84.52;97084.91;5040638;28;20201;-76
2021/03/24 09:47:26;;;;;;;36.90;15.70;;;;;;;6.79;83.73;97085.44;5037670;28;20205;-75
2021/03/24 09:49:58;;;;;;;34.77;14.63;;;;;;;6.89;84.17;97081.84;5039735;28;20213;-75
2021/03/24 09:52:30;;;;;;;33.93;15.57;;;;;;;7.08;84.08;97075.84;5040676;28;20208;-75
2021/03/24 09:54:58;;;;;;;37.00;14.97;;;;;;;7.34;81.61;97067.31;5039219;28;20212;-75
2021/03/24 09:57:29;;;;;;;35.13;15.43;;;;;;;7.60;82.68;97064.00;5038982;28;20230;-76
2021/03/24 10:00:03;;;;;;;32.63;14.90;;;;;;;7.58;80.31;97065.91;5039525;28;20231;-76
2021/03/24 10:02:34;;;;;;;31.83;15.43;;;;;;;7.79;80.52;97056.13;5038659;28;20201;-76
2021/03/24 10:05:03;;;;;;;31.07;14.03;;;;;;;8.15;77.28;97050.13;5038391;28;20201;-75
2021/03/24 10:07:32;;;;;;;32.93;13.27;;;;;;;8.36;75.84;97041.06;5039136;28;20197;-77
2021/03/24 10:10:06;;;;;;;30.83;15.27;;;;;;;8.21;76.41;97044.28;5038775;28;20221;-76
2021/03/24 10:12:38;;;;;;;30.53;14.17;;;;;;;8.03;75.45;97043.34;5039025;28;20213;-77
2021/03/24 10:15:17;;;;;;;27.80;13.80;;;;;;;8.38;73.03;97040.94;5038900;28;20784;-76
2021/03/24 10:17:52;;;;;;;29.97;14.40;;;;;;;8.44;75.05;97028.06;5042370;28;20205;-74
2021/03/24 10:20:22;;;;;;;29.50;13.60;;;;;;;8.72;73.84;97027.91;5042243;28;20692;-76
2021/03/24 10:22:53;;;;;;;29.53;14.10;;;;;;;8.88;71.36;97030.69;5041718;28;20278;-74
2021/03/24 10:25:26;;;;;;;30.03;13.43;;;;;;;8.87;70.22;97020.34;5041397;28;20279;-76
2021/03/24 10:27:56;;;;;;;31.23;14.43;;;;;;;8.75;71.87;97019.72;5040776;28;20214;-76
2021/03/24 10:30:34;;;;;;;31.53;14.47;;;;;;;9.03;72.60;97013.47;5041753;28;20311;-74
2021/03/24 10:33:09;;;;;;;29.63;13.67;;;;;;;9.17;72.04;97012.94;5041597;28;20246;-74
2021/03/24 10:35:39;;;;;;;32.07;15.50;;;;;;;9.28;71.76;97016.19;5040650;28;21246;-76
2021/03/24 10:38:26;;;;;;;27.23;13.23;;;;;;;8.98;71.34;97005.19;5041190;28;20209;-75
2021/03/24 10:41:06;;;;;;;32.93;13.33;;;;;;;9.23;68.38;97007.09;5041048;28;20217;-75
2021/03/24 10:43:41;;;;;;;24.77;11.37;;;;;;;9.00;67.98;97013.75;5040581;28;20204;-74
2021/03/24 10:46:12;;;;;;;32.20;13.47;;;;;;;8.98;70.06;97007.81;5039819;28;20348;-74
2021/03/24 10:48:45;;;;;;;27.10;12.00;;;;;;;9.32;68.68;96995.69;5040438;28;20205;-76
2021/03/24 10:51:17;;;;;;;31.27;13.37;;;;;;;9.58;68.52;96997.34;5040752;28;20756;-75
2021/03/24 10:53:43;;;;;;;31.97;13.43;;;;;;;9.60;67.31;97003.31;5040774;28;20664;-76
2021/03/24 10:56:27;;;;;;;29.70;13.10;;;;;;;9.45;67.50;97009.28;5040403;28;20228;-75
2021/03/24 10:59:03;;;;;;;24.70;11.67;;;;;;;9.37;67.16;96990.78;5041122;28;20216;-77
2021/03/24 11:01:41;;;;;;;22.67;11.37;;;;;;;9.80;67.17;96983.69;5040806;28;20664;-71
2021/03/24 11:04:18;;;;;;;26.20;12.50;;;;;;;10.00;68.58;96986.00;5040511;28;20208;-74
2021/03/24 11:06:52;;;;;;;24.53;11.33;;;;;;;9.99;65.23;96986.16;5039631;28;20306;-76
2021/03/24 11:09:23;;;;;;;27.90;12.63;;;;;;;10.18;67.26;96972.78;5040305;28;20208;-76
2021/03/24 11:11:53;;;;;;;29.33;13.70;;;;;;;10.23;66.35;96981.06;5040981;28;20225;-77
2021/03/24 11:14:24;;;;;;;25.07;11.97;;;;;;;10.35;67.39;96980.63;5040283;28;20209;-75
2021/03/24 11:16:59;;;;;;;25.83;12.93;;;;;;;10.42;65.89;96977.22;5038865;28;20971;-76
2021/03/24 11:19:29;;;;;;;29.67;13.37;;;;;;;10.53;66.21;96969.00;5039796;28;20223;-76
2021/03/24 11:22:19;;;;;;;32.47;13.83;;;;;;;10.79;65.97;96974.19;5039594;28;20216;-76
2021/03/24 11:24:54;;;;;;;27.03;13.37;;;;;;;10.79;65.87;96963.66;5039517;28;20554;-76
2021/03/24 11:27:25;;;;;;;29.17;12.90;;;;;;;11.18;67.52;96961.09;5037296;28;20503;-72
2021/03/24 11:30:03;;;;;;;27.70;13.17;;;;;;;11.33;64.02;96962.09;5039661;28;20213;-75
2021/03/24 11:32:39;;;;;;;25.00;12.45;;;;;;;11.39;62.87;96972.00;5038687;28;20225;-73
2021/03/24 11:35:27;;;;;;;26.73;12.13;;;;;;;11.49;62.91;96962.09;5038331;28;21323;-75
2021/03/24 11:38:02;;;;;;;29.10;12.85;;;;;;;11.36;62.95;96961.75;5039031;28;20234;-74
2021/03/24 11:40:36;;;;;;;25.97;12.40;;;;;;;11.54;61.39;96951.91;5038951;28;20238;-74
2021/03/24 11:43:05;;;;;;;28.63;12.53;;;;;;;11.44;62.67;96953.84;5038978;28;21020;-73
2021/03/24 11:45:34;;;;;;;27.83;12.87;;;;;;;11.28;63.13;96959.13;5037899;28;20228;-73
2021/03/24 11:48:22;;;;;;;24.73;11.10;;;;;;;11.35;61.12;96948.75;5039156;28;20201;-74
2021/03/24 11:51:04;;;;;;;21.60;10.90;;;;;;;11.84;61.52;96944.13;5037145;28;20236;-72